Time;durP1;ratioP1;P1;durP2;ratioP2;P2;SDS_P1;SDS_P2;PMS_P1;PMS_P2;Temp;Humidity;BMP_temperature;BMP_pressure;BME280_temperature;BME280_humidity;BME280_pressure;Samples;Min_cycle;Max_cycle;Signal;HPM_P1;HPM_P2
2022/03/22 00:00:17;;;;;;;42.63;29.92;;;6.90;99.90;;;;;;5048003;28;20041;-77
2022/03/22 00:02:43;;;;;;;46.67;34.00;;;6.60;99.90;;;;;;5053934;28;20044;-79
2022/03/22 00:05:09;;;;;;;47.83;36.47;;;8.90;99.90;;;;;;5058198;28;20037;-79
2022/03/22 00:07:35;;;;;;;43.80;30.67;;;6.90;99.90;;;;;;5061115;28;20468;-78
2022/03/22 00:10:00;;;;;;;37.80;30.10;;;8.50;99.90;;;;;;5048628;28;20503;-80
2022/03/22 00:12:26;;;;;;;38.85;28.90;;;8.10;99.90;;;;;;5068608;28;20043;-78
2022/03/22 00:14:52;;;;;;;41.45;30.85;;;6.90;99.90;;;;;;5065902;28;20047;-78
2022/03/22 00:17:17;;;;;;;39.00;30.38;;;6.90;99.90;;;;;;5069259;28;20120;-78
2022/03/22 00:19:43;;;;;;;44.85;32.88;;;7.50;99.90;;;;;;5041749;28;20047;-78
2022/03/22 00:22:11;;;;;;;38.05;28.98;;;6.80;99.90;;;;;;5046582;28;20056;-77
2022/03/22 00:24:37;;;;;;;43.75;30.15;;;6.80;99.90;;;;;;5012802;28;20045;-78
2022/03/22 00:27:02;;;;;;;42.47;30.70;;;7.10;99.90;;;;;;5018075;28;20059;-80
2022/03/22 00:29:28;;;;;;;43.30;31.45;;;6.80;99.90;;;;;;5029675;28;20040;-78
2022/03/22 00:31:55;;;;;;;44.83;30.63;;;8.40;99.90;;;;;;5032480;28;20049;-78
2022/03/22 00:34:21;;;;;;;39.33;29.95;;;6.30;99.90;;;;;;5022762;28;20045;-78
2022/03/22 00:36:49;;;;;;;43.83;30.02;;;6.70;99.90;;;;;;5060197;28;20110;-78
2022/03/22 00:39:15;;;;;;;43.42;32.38;;;6.70;99.90;;;;;;5060857;28;20652;-79
2022/03/22 00:41:41;;;;;;;48.03;31.65;;;6.60;99.90;;;;;;5058197;28;20112;-78
2022/03/22 00:44:07;;;;;;;42.35;31.27;;;8.20;99.90;;;;;;5060853;28;20060;-78
2022/03/22 00:46:33;;;;;;;46.53;31.23;;;6.80;99.90;;;;;;5062949;28;20072;-79
2022/03/22 00:49:02;;;;;;;42.70;32.03;;;6.60;99.90;;;;;;5061029;28;20073;-78
2022/03/22 00:51:28;;;;;;;40.88;32.10;;;6.50;99.90;;;;;;5047830;28;20040;-79
2022/03/22 00:53:54;;;;;;;41.47;31.27;;;6.50;99.90;;;;;;5060068;28;20047;-78
2022/03/22 00:56:20;;;;;;;44.35;32.10;;;6.30;99.90;;;;;;5064165;28;20036;-78
2022/03/22 00:58:45;;;;;;;40.58;30.45;;;6.50;99.90;;;;;;5063882;28;20044;-78
2022/03/22 01:01:11;;;;;;;43.10;31.70;;;6.30;99.90;;;;;;5064137;28;20041;-80
2022/03/22 01:03:37;;;;;;;42.15;30.85;;;6.60;99.90;;;;;;5043429;28;20046;-79
2022/03/22 01:06:02;;;;;;;42.60;32.00;;;5.30;99.90;;;;;;5035699;28;20036;-79
2022/03/22 01:08:29;;;;;;;43.63;31.58;;;6.40;99.90;;;;;;5063424;28;20048;-79
2022/03/22 01:10:55;;;;;;;39.15;31.00;;;6.20;99.90;;;;;;5049160;28;20106;-79
2022/03/22 01:13:27;;;;;;;40.92;32.22;;;6.20;99.90;;;;;;5063001;28;20484;-78
2022/03/22 01:15:53;;;;;;;43.60;31.20;;;6.50;99.90;;;;;;5047917;28;20036;-79
2022/03/22 01:18:20;;;;;;;44.15;31.73;;;6.10;99.90;;;;;;5060795;28;20090;-78
2022/03/22 01:20:49;;;;;;;40.80;29.90;;;6.60;99.90;;;;;;5061277;28;20111;-80
2022/03/22 01:23:15;;;;;;;44.55;32.13;;;6.60;99.90;;;;;;5063400;28;20485;-78
2022/03/22 01:25:43;;;;;;;38.97;30.33;;;6.60;99.90;;;;;;5053372;28;20040;-78
2022/03/22 01:28:11;;;;;;;39.45;30.83;;;6.30;99.90;;;;;;5048136;28;20063;-78
2022/03/22 01:30:37;;;;;;;41.28;31.38;;;6.10;99.90;;;;;;5053659;28;20063;-78
2022/03/22 01:33:05;;;;;;;40.40;31.85;;;6.50;99.90;;;;;;5042072;28;20439;-77
2022/03/22 01:35:31;;;;;;;46.53;31.88;;;6.20;99.90;;;;;;5066932;28;20569;-78
2022/03/22 01:37:57;;;;;;;44.53;29.90;;;8.30;99.90;;;;;;5043995;28;20057;-78
2022/03/22 01:40:24;;;;;;;41.75;31.15;;;6.60;99.90;;;;;;5066902;28;20036;-78
2022/03/22 01:42:51;;;;;;;38.85;31.45;;;6.30;99.90;;;;;;5044644;28;20552;-79
2022/03/22 01:45:17;;;;;;;43.55;32.67;;;7.10;99.90;;;;;;5047306;28;20071;-79
2022/03/22 01:47:44;;;;;;;39.75;31.35;;;6.50;99.90;;;;;;5061686;28;20550;-78
2022/03/22 01:50:12;;;;;;;44.10;31.10;;;8.40;99.90;;;;;;5049796;28;20082;-78
2022/03/22 01:52:40;;;;;;;45.17;32.22;;;8.00;99.90;;;;;;5061152;28;20044;-79
2022/03/22 01:55:08;;;;;;;45.88;31.38;;;6.30;99.90;;;;;;5044121;28;20124;-78
2022/03/22 01:57:34;;;;;;;47.42;32.72;;;6.50;99.90;;;;;;5081438;28;20468;-78
2022/03/22 02:00:01;;;;;;;43.88;31.80;;;6.20;99.90;;;;;;5065572;28;20067;-78
2022/03/22 02:07:57;;;;;;;42.35;30.30;;;5.10;99.90;;;;;;5067513;28;20053;-80
2022/03/22 02:10:23;;;;;;;39.88;30.75;;;6.40;99.90;;;;;;5050655;28;20036;-79
2022/03/22 02:12:48;;;;;;;41.55;32.03;;;6.40;99.90;;;;;;5068071;28;20048;-79
2022/03/22 02:15:14;;;;;;;41.88;32.15;;;6.20;99.90;;;;;;5061034;28;20070;-79
2022/03/22 02:17:45;;;;;;;37.63;30.02;;;6.20;99.90;;;;;;5065918;28;20072;-79
2022/03/22 02:20:12;;;;;;;40.60;31.05;;;6.40;99.90;;;;;;5058605;28;20049;-80
2022/03/22 02:23:04;;;;;;;43.13;31.20;;;6.50;99.90;;;;;;5056665;28;20484;-79
2022/03/22 02:25:30;;;;;;;41.58;30.83;;;6.50;99.90;;;;;;5051612;28;20052;-79
2022/03/22 02:27:55;;;;;;;39.28;30.30;;;6.40;99.90;;;;;;5063377;28;20037;-80
2022/03/22 02:30:22;;;;;;;43.38;31.40;;;5.90;99.90;;;;;;5060077;28;20133;-79
2022/03/22 02:32:56;;;;;;;40.42;30.83;;;6.40;99.90;;;;;;5042360;28;20630;-78
2022/03/22 02:35:23;;;;;;;46.83;30.83;;;7.90;99.90;;;;;;5065213;28;20154;-80
2022/03/22 02:37:50;;;;;;;42.92;31.58;;;6.40;99.90;;;;;;5063294;28;20060;-79
2022/03/22 02:40:17;;;;;;;41.28;31.73;;;6.40;99.90;;;;;;5097379;28;20289;-80
2022/03/22 02:42:53;;;;;;;43.25;31.98;;;6.30;99.90;;;;;;5061645;28;20052;-78
2022/03/22 02:45:23;;;;;;;40.35;31.45;;;6.30;99.90;;;;;;5059286;28;20029;-78
2022/03/22 02:47:49;;;;;;;38.03;29.75;;;6.30;99.90;;;;;;5060258;28;20044;-78
2022/03/22 02:50:15;;;;;;;37.88;30.50;;;5.90;99.90;;;;;;5044918;28;20123;-78
2022/03/22 02:52:41;;;;;;;39.42;29.98;;;6.30;99.90;;;;;;5046228;28;20044;-79
2022/03/22 02:55:09;;;;;;;44.70;32.15;;;6.20;99.90;;;;;;5068758;28;20051;-78
2022/03/22 02:57:36;;;;;;;40.97;31.17;;;6.30;99.90;;;;;;5056189;28;20042;-79
2022/03/22 03:00:05;;;;;;;48.03;31.80;;;6.30;99.90;;;;;;5042806;28;20036;-78
2022/03/22 03:02:30;;;;;;;43.47;31.17;;;6.30;99.90;;;;;;5057854;28;20045;-79
2022/03/22 03:04:56;;;;;;;42.35;31.98;;;7.50;99.90;;;;;;5048988;28;20055;-80
2022/03/22 03:07:22;;;;;;;42.38;31.05;;;6.20;99.90;;;;;;5047455;28;20036;-78
2022/03/22 03:09:48;;;;;;;42.33;31.55;;;6.20;99.90;;;;;;5067773;28;20115;-78
2022/03/22 03:12:14;;;;;;;41.03;30.88;;;6.00;99.90;;;;;;5046186;28;20432;-80
2022/03/22 03:14:40;;;;;;;44.88;31.52;;;5.90;99.90;;;;;;5048835;28;20033;-79
2022/03/22 03:17:07;;;;;;;40.63;31.02;;;7.50;99.90;;;;;;5063936;28;20037;-79
2022/03/22 03:19:33;;;;;;;42.40;30.98;;;7.70;99.90;;;;;;5076286;28;20058;-78
2022/03/22 03:21:59;;;;;;;47.03;31.52;;;7.10;99.90;;;;;;5046290;28;20411;-79
2022/03/22 03:24:25;;;;;;;40.50;30.92;;;6.30;99.90;;;;;;5065075;28;20460;-80
2022/03/22 03:26:50;;;;;;;44.45;31.15;;;6.00;99.90;;;;;;5043786;28;20400;-81
2022/03/22 03:29:16;;;;;;;35.58;29.92;;;6.00;99.90;;;;;;5046390;28;20373;-82
2022/03/22 03:31:42;;;;;;;39.42;30.15;;;6.00;99.90;;;;;;5058863;28;20484;-81
2022/03/22 03:34:07;;;;;;;42.13;31.08;;;6.00;99.90;;;;;;5062471;28;20527;-77
2022/03/22 03:36:33;;;;;;;44.28;32.72;;;6.00;99.90;;;;;;5058941;28;20078;-80
2022/03/22 03:39:01;;;;;;;41.67;30.95;;;5.50;99.90;;;;;;5042033;28;20611;-80
2022/03/22 03:47:04;;;;;;;40.40;30.63;;;6.00;99.90;;;;;;5062412;28;20609;-78
2022/03/22 03:49:30;;;;;;;42.15;30.60;;;6.00;99.90;;;;;;5063928;28;20049;-78
2022/03/22 03:51:56;;;;;;;40.58;31.67;;;5.90;99.90;;;;;;5060540;28;20044;-79
2022/03/22 03:54:21;;;;;;;41.90;29.65;;;7.60;99.90;;;;;;5046458;28;20045;-79
2022/03/22 03:56:47;;;;;;;39.55;31.33;;;5.80;99.90;;;;;;5051683;28;20052;-80
2022/03/22 03:59:14;;;;;;;40.33;30.20;;;5.90;99.90;;;;;;5062399;28;20055;-79
2022/03/22 04:01:39;;;;;;;38.75;30.35;;;5.70;99.90;;;;;;5056455;28;20080;-79
2022/03/22 04:04:05;;;;;;;40.10;30.42;;;5.90;99.90;;;;;;5065249;28;20193;-79
2022/03/22 04:06:31;;;;;;;42.58;30.15;;;5.40;99.90;;;;;;5064742;28;20066;-79
2022/03/22 04:08:57;;;;;;;43.63;32.05;;;5.90;99.90;;;;;;5064311;28;20169;-78
2022/03/22 04:11:22;;;;;;;40.97;31.60;;;5.80;99.90;;;;;;5059549;28;20564;-79
2022/03/22 04:13:48;;;;;;;42.55;31.30;;;5.50;99.90;;;;;;5044825;28;20040;-79
2022/03/22 04:16:14;;;;;;;40.88;31.17;;;5.80;99.90;;;;;;5058583;28;20378;-79
2022/03/22 04:18:39;;;;;;;45.03;32.22;;;7.20;99.90;;;;;;5042623;28;20139;-79
2022/03/22 04:21:05;;;;;;;44.58;30.48;;;5.50;99.90;;;;;;5065577;28;20047;-79
2022/03/22 04:23:31;;;;;;;43.88;31.13;;;7.20;99.90;;;;;;5046062;28;20360;-80
2022/03/22 04:25:57;;;;;;;41.35;30.92;;;5.50;99.90;;;;;;5045353;28;20047;-80
2022/03/22 04:33:52;;;;;;;41.38;32.05;;;5.80;99.90;;;;;;5060551;28;20052;-79
2022/03/22 04:36:18;;;;;;;39.50;29.98;;;5.80;99.90;;;;;;5060300;28;20127;-78
2022/03/22 04:38:44;;;;;;;40.83;31.48;;;5.80;99.90;;;;;;5054270;28;20400;-78
2022/03/22 04:41:10;;;;;;;40.85;32.03;;;5.50;99.90;;;;;;5057307;28;20404;-79
2022/03/22 04:43:35;;;;;;;45.92;31.88;;;5.60;99.90;;;;;;5058066;28;20041;-78
2022/03/22 04:46:01;;;;;;;42.45;31.63;;;5.70;99.90;;;;;;5062683;28;20037;-79
2022/03/22 04:48:28;;;;;;;41.92;31.33;;;5.20;99.90;;;;;;5052706;28;20458;-78
2022/03/22 04:56:43;;;;;;;44.30;31.33;;;5.70;99.90;;;;;;5053209;28;20052;-78
2022/03/22 04:59:07;;;;;;;40.03;31.73;;;5.60;99.90;;;;;;5058503;28;20468;-79
2022/03/22 05:01:33;;;;;;;40.75;31.35;;;5.50;99.90;;;;;;5059258;28;20067;-79
2022/03/22 05:03:58;;;;;;;40.85;31.25;;;6.70;99.90;;;;;;5057050;28;20457;-79
2022/03/22 05:06:27;;;;;;;44.08;32.05;;;5.40;99.90;;;;;;5064431;28;20090;-79
2022/03/22 05:08:54;;;;;;;41.35;31.38;;;7.70;99.90;;;;;;5051256;28;20434;-80
2022/03/22 05:11:20;;;;;;;43.70;31.42;;;5.00;99.90;;;;;;5066900;28;20043;-79
2022/03/22 05:13:46;;;;;;;42.38;31.17;;;5.40;99.90;;;;;;5061606;28;20480;-78
2022/03/22 05:16:12;;;;;;;44.70;31.88;;;5.60;99.90;;;;;;5066000;28;20024;-78
2022/03/22 05:18:37;;;;;;;44.22;31.40;;;5.50;99.90;;;;;;5046734;28;20041;-78
2022/03/22 05:21:04;;;;;;;38.15;30.52;;;5.60;99.90;;;;;;5063889;28;20547;-78
2022/03/22 05:23:30;;;;;;;44.17;31.73;;;5.60;99.90;;;;;;5047129;28;20403;-79
2022/03/22 05:25:56;;;;;;;42.25;31.25;;;5.60;99.90;;;;;;5029746;28;20408;-78
2022/03/22 05:28:22;;;;;;;42.55;31.13;;;5.50;99.90;;;;;;5045826;28;20048;-78
2022/03/22 05:30:50;;;;;;;46.22;31.70;;;5.50;99.90;;;;;;5058710;28;20122;-79
2022/03/22 05:33:16;;;;;;;43.75;32.55;;;5.40;99.90;;;;;;5064569;28;20563;-78
2022/03/22 05:35:41;;;;;;;44.13;32.95;;;5.20;99.90;;;;;;5070039;28;20044;-79
2022/03/22 05:38:07;;;;;;;44.05;30.63;;;5.40;99.90;;;;;;5066242;28;20518;-78
2022/03/22 05:40:33;;;;;;;41.10;30.83;;;5.30;99.90;;;;;;5067190;28;20036;-79
2022/03/22 05:42:58;;;;;;;40.55;30.73;;;6.70;99.90;;;;;;5052361;28;20054;-79
2022/03/22 05:45:26;;;;;;;45.80;31.52;;;5.40;99.90;;;;;;5070987;28;20032;-80
2022/03/22 05:47:53;;;;;;;41.17;31.77;;;6.80;99.90;;;;;;5044519;28;20090;-79
2022/03/22 05:50:19;;;;;;;42.50;30.67;;;5.20;99.90;;;;;;5042195;28;20443;-79
2022/03/22 05:52:47;;;;;;;40.63;31.42;;;5.00;99.90;;;;;;5047253;28;20040;-79
2022/03/22 05:55:13;;;;;;;39.78;29.70;;;4.90;99.90;;;;;;5049322;28;20040;-78
2022/03/22 05:57:39;;;;;;;42.83;30.25;;;7.40;99.90;;;;;;5069497;28;20036;-78
2022/03/22 06:00:08;;;;;;;54.30;36.60;;;7.00;99.90;;;;;;5066202;28;20158;-78
2022/03/22 06:02:37;;;;;;;45.00;31.60;;;5.40;99.90;;;;;;5062032;28;20507;-79
2022/03/22 06:05:05;;;;;;;42.58;31.33;;;7.50;99.90;;;;;;5066871;28;20051;-77
2022/03/22 06:07:31;;;;;;;38.22;30.05;;;5.40;99.90;;;;;;5065534;28;20040;-79
2022/03/22 06:09:57;;;;;;;43.15;30.80;;;5.30;99.90;;;;;;5069226;28;20032;-78
2022/03/22 06:12:22;;;;;;;40.03;32.22;;;7.30;99.90;;;;;;5069338;28;20606;-77
2022/03/22 06:15:14;;;;;;;42.28;30.75;;;5.00;99.90;;;;;;5051912;28;20455;-77
2022/03/22 06:17:33;;;;;;;38.10;29.73;;;5.30;99.90;;;;;;5069565;28;20076;-77
2022/03/22 06:19:59;;;;;;;43.38;30.55;;;5.20;99.90;;;;;;5069240;28;20040;-77
2022/03/22 06:22:24;;;;;;;45.53;32.97;;;6.80;99.90;;;;;;5069841;28;20139;-77
2022/03/22 06:24:50;;;;;;;39.50;30.58;;;5.40;99.90;;;;;;5068475;28;20097;-80
2022/03/22 06:27:17;;;;;;;41.75;31.85;;;5.20;99.90;;;;;;5068680;28;20503;-78
2022/03/22 06:29:43;;;;;;;47.65;32.13;;;5.30;99.90;;;;;;5051910;28;20145;-80
2022/03/22 06:32:11;;;;;;;44.95;30.92;;;4.90;99.90;;;;;;5051956;28;20518;-80
2022/03/22 06:34:37;;;;;;;41.03;30.63;;;5.30;99.90;;;;;;5068944;28;20111;-80
2022/03/22 06:37:03;;;;;;;43.08;31.58;;;5.40;99.90;;;;;;5069482;28;20523;-79
2022/03/22 06:39:29;;;;;;;43.88;31.50;;;5.40;99.90;;;;;;5052233;28;20389;-77
2022/03/22 06:41:55;;;;;;;39.92;29.90;;;5.40;99.90;;;;;;5069137;28;20036;-80
2022/03/22 06:44:20;;;;;;;40.92;31.10;;;5.40;99.90;;;;;;5069679;28;20182;-81
2022/03/22 06:46:46;;;;;;;40.20;29.80;;;5.50;99.90;;;;;;5063251;28;20047;-79
2022/03/22 06:49:12;;;;;;;42.47;32.33;;;5.50;99.90;;;;;;5067392;28;20037;-81
2022/03/22 06:51:38;;;;;;;42.42;32.35;;;5.60;99.90;;;;;;5049092;28;20036;-77
2022/03/22 06:54:04;;;;;;;42.13;33.42;;;5.60;99.90;;;;;;5060483;28;20059;-81
2022/03/22 06:56:31;;;;;;;42.78;32.28;;;5.60;99.90;;;;;;5067695;28;20496;-79
2022/03/22 06:58:58;;;;;;;46.25;32.75;;;5.60;99.90;;;;;;5067112;28;20492;-77
2022/03/22 07:01:24;;;;;;;41.65;31.30;;;5.60;99.90;;;;;;5062679;28;20571;-80
2022/03/22 07:03:49;;;;;;;41.47;29.55;;;5.70;99.90;;;;;;5035272;28;20048;-77
2022/03/22 07:06:15;;;;;;;40.90;30.73;;;5.70;99.90;;;;;;5068020;28;20394;-78
2022/03/22 07:08:40;;;;;;;44.20;30.92;;;5.80;99.90;;;;;;5067499;28;20510;-77
2022/03/22 07:13:50;;;;;;;45.45;32.17;;;5.90;99.90;;;;;;5066515;28;20060;-80
2022/03/22 07:16:16;;;;;;;43.50;32.13;;;5.90;99.90;;;;;;5069937;28;20055;-78
2022/03/22 07:18:42;;;;;;;50.67;33.08;;;6.00;99.90;;;;;;5050023;28;20040;-78
2022/03/22 07:21:07;;;;;;;42.63;31.27;;;6.00;99.90;;;;;;4720962;28;10000124;-80
2022/03/22 07:23:33;;;;;;;46.83;33.58;;;6.10;99.90;;;;;;5062704;28;20844;-80
2022/03/22 07:26:00;;;;;;;44.92;30.90;;;6.20;99.90;;;;;;5056011;28;20052;-79
2022/03/22 07:28:26;;;;;;;45.53;33.28;;;6.20;99.90;;;;;;5061926;28;20506;-81
2022/03/22 07:30:51;;;;;;;40.38;32.38;;;6.30;99.90;;;;;;5067115;28;20060;-81
2022/03/22 07:33:17;;;;;;;47.33;32.20;;;6.30;99.90;;;;;;5045558;28;20133;-80
2022/03/22 07:35:43;;;;;;;45.95;31.13;;;6.40;99.90;;;;;;5048051;28;20064;-80
2022/03/22 07:38:08;;;;;;;42.38;32.28;;;6.50;99.90;;;;;;5064954;28;20520;-80
2022/03/22 07:40:34;;;;;;;43.58;32.47;;;6.50;99.90;;;;;;5065244;28;20032;-81
2022/03/22 07:43:00;;;;;;;46.45;31.70;;;6.60;99.90;;;;;;5064654;28;20037;-82
2022/03/22 07:45:25;;;;;;;42.63;31.08;;;6.70;99.90;;;;;;5060654;28;20172;-82
2022/03/22 07:47:51;;;;;;;45.92;32.25;;;6.70;99.90;;;;;;5062857;28;20044;-81
2022/03/22 07:53:01;;;;;;;79.88;51.75;;;6.90;99.90;;;;;;5066432;28;20041;-83
2022/03/22 07:55:29;;;;;;;50.47;34.15;;;7.00;99.90;;;;;;5067492;28;20119;-82
2022/03/22 07:57:57;;;;;;;44.35;32.05;;;7.10;99.90;;;;;;5066785;28;20035;-81
2022/03/22 08:00:23;;;;;;;42.55;30.63;;;7.20;99.90;;;;;;5061798;28;20169;-82
2022/03/22 08:02:54;;;;;;;43.30;32.15;;;7.30;99.90;;;;;;5056830;28;20479;-81
2022/03/22 08:05:20;;;;;;;40.67;30.23;;;7.40;99.90;;;;;;5066064;28;20051;-82
2022/03/22 08:07:45;;;;;;;40.28;28.83;;;7.50;99.90;;;;;;5069375;28;20048;-81
2022/03/22 08:10:11;;;;;;;40.40;29.00;;;7.60;99.90;;;;;;5068428;28;20055;-82
2022/03/22 08:12:37;;;;;;;139.93;96.63;;;7.70;99.90;;;;;;5069621;28;20129;-82
2022/03/22 08:15:03;;;;;;;131.75;80.72;;;7.80;99.90;;;;;;5067832;28;20165;-82
2022/03/22 08:17:28;;;;;;;53.53;36.80;;;8.00;99.90;;;;;;5071805;28;20066;-82
2022/03/22 08:19:54;;;;;;;42.72;29.83;;;8.10;99.90;;;;;;5052146;28;20041;-82
2022/03/22 08:22:19;;;;;;;40.65;29.05;;;8.20;99.90;;;;;;5068057;28;20045;-82
2022/03/22 08:24:45;;;;;;;43.33;28.63;;;8.30;99.90;;;;;;5068175;28;20048;-82
2022/03/22 08:27:10;;;;;;;43.05;30.08;;;8.50;99.90;;;;;;5053878;28;20468;-81
2022/03/22 08:29:36;;;;;;;34.65;27.55;;;8.60;99.90;;;;;;5068662;28;20048;-82
2022/03/22 08:32:02;;;;;;;37.67;28.55;;;8.70;99.90;;;;;;5067534;28;20095;-83
2022/03/22 08:34:28;;;;;;;38.22;28.60;;;8.80;99.90;;;;;;5066291;28;20049;-81
2022/03/22 08:36:54;;;;;;;39.42;27.45;;;9.00;99.90;;;;;;5070939;28;20040;-81
2022/03/22 08:39:20;;;;;;;42.08;28.48;;;9.20;99.90;;;;;;5073967;28;20116;-83
2022/03/22 08:41:45;;;;;;;41.03;28.33;;;9.30;99.90;;;;;;5072397;28;20387;-83
2022/03/22 08:44:11;;;;;;;390.02;283.23;;;9.40;99.90;;;;;;5072480;28;20044;-82
2022/03/22 08:46:37;;;;;;;83.95;53.72;;;9.50;99.90;;;;;;5069847;28;20071;-82
2022/03/22 08:49:04;;;;;;;49.30;33.08;;;9.60;99.90;;;;;;5071057;28;20460;-83
2022/03/22 08:51:30;;;;;;;39.70;27.77;;;9.80;99.90;;;;;;5072563;28;20038;-82
2022/03/22 08:53:56;;;;;;;39.15;28.15;;;9.90;99.90;;;;;;5074193;28;20036;-82
2022/03/22 08:56:25;;;;;;;35.45;27.33;;;10.00;99.90;;;;;;5071740;28;20047;-82
2022/03/22 08:58:54;;;;;;;39.47;26.92;;;10.30;99.90;;;;;;5055060;28;20502;-83
2022/03/22 09:01:27;;;;;;;38.03;26.42;;;10.40;99.90;;;;;;5073666;28;20097;-82
2022/03/22 09:06:38;;;;;;;39.30;26.85;;;10.60;99.90;;;;;;5072734;28;20485;-82
2022/03/22 09:09:10;;;;;;;37.95;28.73;;;10.70;99.90;;;;;;5073550;28;20408;-84
2022/03/22 09:11:38;;;;;;;38.30;27.95;;;10.80;99.90;;;;;;5073338;28;20047;-81
2022/03/22 09:14:04;;;;;;;34.78;27.15;;;10.80;99.90;;;;;;5072002;28;20056;-82
2022/03/22 09:16:31;;;;;;;38.47;27.70;;;10.90;99.90;;;;;;5070679;28;20040;-83
2022/03/22 09:18:57;;;;;;;39.42;27.23;;;10.90;99.90;;;;;;5072819;28;20543;-82
2022/03/22 09:21:22;;;;;;;38.88;26.63;;;11.00;99.90;;;;;;5073465;28;20037;-82
2022/03/22 09:23:48;;;;;;;37.20;26.40;;;11.30;99.90;;;;;;5073155;28;20052;-82
2022/03/22 09:26:13;;;;;;;34.30;26.67;;;11.20;99.90;;;;;;5062946;28;20458;-82
2022/03/22 09:28:39;;;;;;;39.80;27.95;;;11.30;99.90;;;;;;5072325;28;20040;-83
2022/03/22 09:31:04;;;;;;;39.90;26.30;;;11.40;99.90;;;;;;5071000;28;20056;-82
2022/03/22 09:33:30;;;;;;;38.63;26.52;;;11.80;99.90;;;;;;5071202;28;20047;-85
2022/03/22 09:35:57;;;;;;;35.67;26.10;;;12.00;99.90;;;;;;5071346;28;20138;-83
2022/03/22 09:38:23;;;;;;;35.40;26.20;;;11.60;99.90;;;;;;5071985;28;20049;-82
2022/03/22 09:40:54;;;;;;;35.15;24.48;;;11.70;99.90;;;;;;5071445;28;20055;-83
2022/03/22 09:43:22;;;;;;;33.75;24.90;;;11.80;99.90;;;;;;5064017;28;20040;-83
2022/03/22 09:45:50;;;;;;;36.88;27.10;;;11.90;99.90;;;;;;5070500;28;20504;-83
2022/03/22 09:48:17;;;;;;;34.20;26.13;;;11.90;99.90;;;;;;5064012;28;20071;-83
2022/03/22 09:53:27;;;;;;;;;;;12.10;99.90;;;;;;5064931;28;20044;-83
2022/03/22 09:55:53;;;;;;;37.38;25.33;;;12.20;99.90;;;;;;5068563;28;20358;-84
2022/03/22 09:58:18;;;;;;;37.83;25.75;;;12.30;99.90;;;;;;5063502;28;20043;-83
2022/03/22 10:00:44;;;;;;;34.20;25.20;;;12.40;99.90;;;;;;5067295;28;20479;-84
2022/03/22 10:03:20;;;;;;;35.65;24.52;;;12.50;99.90;;;;;;5063506;28;20400;-83
2022/03/22 10:06:00;;;;;;;35.88;25.10;;;12.60;99.90;;;;;;5067734;28;20066;-83
2022/03/22 10:08:26;;;;;;;36.50;24.98;;;12.70;99.90;;;;;;5077210;28;20059;-83
2022/03/22 10:10:58;;;;;;;35.80;24.80;;;12.80;99.90;;;;;;5072781;28;20041;-83
2022/03/22 10:13:24;;;;;;;36.58;26.30;;;12.90;99.90;;;;;;5055446;28;20404;-84
2022/03/22 10:15:50;;;;;;;37.35;25.63;;;13.10;99.90;;;;;;5068984;28;20040;-84
2022/03/22 10:18:23;;;;;;;32.22;24.42;;;13.20;99.90;;;;;;5065502;28;20485;-83
2022/03/22 10:20:58;;;;;;;41.30;26.40;;;13.20;99.90;;;;;;5058953;28;20091;-83
2022/03/22 10:23:23;;;;;;;33.80;25.38;;;13.30;99.90;;;;;;5064912;28;20126;-84
2022/03/22 10:25:49;;;;;;;38.42;25.25;;;13.50;99.90;;;;;;5070822;28;20132;-83
2022/03/22 10:28:14;;;;;;;32.40;23.55;;;13.60;99.90;;;;;;5070840;28;20131;-83
2022/03/22 10:30:40;;;;;;;32.25;23.92;;;13.70;99.90;;;;;;5070902;28;20087;-83
2022/03/22 10:33:06;;;;;;;37.97;26.05;;;13.90;99.90;;;;;;5069230;28;20413;-84
2022/03/22 10:35:34;;;;;;;35.03;21.90;;;14.00;99.90;;;;;;5068931;28;20028;-84
2022/03/22 10:38:03;;;;;;;36.00;23.20;;;14.10;99.90;;;;;;5069792;28;20056;-84
2022/03/22 10:40:57;;;;;;;35.70;22.92;;;14.20;99.90;;;;;;5064651;28;20029;-84
2022/03/22 10:43:26;;;;;;;31.17;21.92;;;14.30;99.90;;;;;;5053229;28;20059;-84
2022/03/22 10:46:00;;;;;;;34.45;22.40;;;14.50;99.90;;;;;;5052431;28;20075;-83
2022/03/22 10:48:38;;;;;;;30.60;21.33;;;14.60;99.90;;;;;;5063486;28;20056;-84
2022/03/22 10:51:06;;;;;;;29.55;22.17;;;14.70;99.90;;;;;;5053176;28;20094;-84
2022/03/22 10:53:34;;;;;;;31.05;22.48;;;14.90;99.90;;;;;;5046207;28;20036;-83
2022/03/22 10:56:04;;;;;;;34.00;23.17;;;15.00;99.90;;;;;;5058638;28;20079;-84
2022/03/22 10:58:31;;;;;;;36.63;23.58;;;15.20;99.10;;;;;;5063680;28;20083;-83
2022/03/22 11:00:59;;;;;;;33.75;23.65;;;15.20;99.10;;;;;;5070116;28;20051;-84
2022/03/22 11:03:29;;;;;;;33.65;22.75;;;15.30;99.10;;;;;;5063141;28;20036;-84
2022/03/22 11:05:55;;;;;;;34.63;23.55;;;15.40;98.90;;;;;;5070973;28;20041;-84
2022/03/22 11:08:23;;;;;;;36.03;24.88;;;15.40;98.80;;;;;;5066657;28;20048;-83
2022/03/22 11:10:54;;;;;;;31.98;22.90;;;15.40;98.80;;;;;;5064919;28;20048;-82
2022/03/22 11:13:23;;;;;;;36.85;22.67;;;15.50;98.50;;;;;;5070834;28;20051;-83
2022/03/22 11:15:50;;;;;;;33.70;24.48;;;15.70;98.20;;;;;;5070955;28;20037;-82
2022/03/22 11:18:18;;;;;;;35.22;22.98;;;15.80;97.90;;;;;;5070193;28;20044;-82
2022/03/22 11:21:00;;;;;;;29.50;22.63;;;15.90;98.00;;;;;;5064757;28;20063;-80
2022/03/22 11:23:33;;;;;;;29.80;22.42;;;16.00;97.70;;;;;;5068863;28;20060;-81
2022/03/22 11:26:09;;;;;;;37.63;23.35;;;16.10;97.40;;;;;;5066405;28;20037;-82
2022/03/22 11:28:34;;;;;;;31.02;22.73;;;16.20;97.20;;;;;;5067084;28;20044;-82
2022/03/22 11:31:01;;;;;;;33.20;22.70;;;16.30;96.50;;;;;;5067543;28;20052;-82
2022/03/22 11:36:18;;;;;;;35.45;22.85;;;16.50;96.40;;;;;;5061578;28;20056;-81
2022/03/22 11:38:46;;;;;;;30.27;22.83;;;16.60;95.40;;;;;;5067533;28;20044;-81
2022/03/22 11:44:14;;;;;;;30.48;21.88;;;16.90;94.70;;;;;;5067280;28;20095;-81
2022/03/22 11:46:40;;;;;;;30.98;22.63;;;16.90;94.60;;;;;;5067339;28;20127;-82
2022/03/22 11:49:17;;;;;;;31.02;21.63;;;17.00;94.80;;;;;;5049937;28;20136;-82
2022/03/22 11:51:57;;;;;;;31.00;22.08;;;17.20;94.00;;;;;;5063432;28;20559;-81
2022/03/22 11:54:25;;;;;;;31.63;22.40;;;17.40;94.50;;;;;;5050005;28;20044;-82
2022/03/22 11:56:55;;;;;;;33.45;21.90;;;17.50;93.70;;;;;;5066518;28;20060;-81
2022/03/22 11:59:22;;;;;;;32.92;23.20;;;17.70;93.10;;;;;;5049662;28;20055;-82
2022/03/22 12:02:22;;;;;;;32.60;20.95;;;17.80;93.00;;;;;;5049600;28;20059;-82
2022/03/22 12:04:53;;;;;;;34.90;23.00;;;17.90;90.90;;;;;;5036322;28;20048;-83
2022/03/22 12:07:35;;;;;;;31.90;22.10;;;18.00;91.50;;;;;;5066359;28;20140;-81
2022/03/22 12:10:10;;;;;;;31.55;21.73;;;18.10;91.50;;;;;;5065986;28;20040;-81
2022/03/22 12:12:37;;;;;;;30.58;21.45;;;18.20;90.80;;;;;;5058321;28;20126;-81
2022/03/22 12:15:06;;;;;;;33.47;21.65;;;18.60;90.90;;;;;;5068313;28;20505;-82
2022/03/22 12:17:32;;;;;;;33.17;21.23;;;18.50;90.50;;;;;;5066744;28;20085;-82
2022/03/22 12:20:04;;;;;;;28.27;21.48;;;18.60;90.30;;;;;;5059982;28;20045;-83
2022/03/22 12:22:31;;;;;;;31.00;21.75;;;18.70;90.30;;;;;;5068177;28;20515;-82
2022/03/22 12:24:59;;;;;;;30.90;20.63;;;18.80;89.60;;;;;;5067412;28;20044;-81
2022/03/22 12:27:25;;;;;;;32.95;22.92;;;18.80;87.40;;;;;;5046184;28;20096;-83
2022/03/22 12:29:54;;;;;;;30.17;22.30;;;18.80;86.90;;;;;;5067809;28;20056;-82
2022/03/22 12:32:21;;;;;;;32.05;21.30;;;18.80;86.80;;;;;;5064425;28;20044;-82
2022/03/22 12:34:48;;;;;;;31.13;22.92;;;19.00;86.50;;;;;;5049445;28;20535;-84
2022/03/22 12:37:18;;;;;;;32.75;22.80;;;19.00;85.90;;;;;;5067477;28;20412;-83
2022/03/22 12:39:46;;;;;;;30.55;20.50;;;19.30;85.60;;;;;;5065965;28;20052;-82
2022/03/22 12:42:13;;;;;;;27.10;19.90;;;19.30;85.30;;;;;;5049764;28;20075;-83
2022/03/22 12:44:40;;;;;;;32.83;21.60;;;19.40;85.00;;;;;;5065934;28;20094;-82
2022/03/22 12:47:06;;;;;;;30.35;19.95;;;19.50;84.40;;;;;;5067008;28;20041;-82
2022/03/22 12:49:39;;;;;;;27.52;19.58;;;19.60;84.10;;;;;;5068116;28;20067;-84
2022/03/22 12:52:07;;;;;;;28.15;18.73;;;19.80;83.80;;;;;;5067601;28;20041;-83
2022/03/22 12:54:36;;;;;;;30.15;20.83;;;19.90;81.50;;;;;;5032640;28;20045;-84
2022/03/22 12:57:05;;;;;;;26.88;21.00;;;20.00;79.90;;;;;;5041569;28;20092;-84
2022/03/22 12:59:30;;;;;;;33.17;20.75;;;20.20;79.40;;;;;;5061463;28;20505;-83
2022/03/22 13:01:57;;;;;;;27.52;19.02;;;20.10;79.50;;;;;;5067727;28;20037;-84
2022/03/22 13:04:31;;;;;;;27.30;19.25;;;20.20;79.00;;;;;;5067783;28;20094;-82
2022/03/22 13:07:02;;;;;;;27.30;18.70;;;20.20;76.20;;;;;;5075811;28;20042;-83
2022/03/22 13:12:14;;;;;;;32.25;19.30;;;20.10;77.70;;;;;;5069859;28;20049;-83
2022/03/22 13:17:43;;;;;;;29.70;18.38;;;19.90;76.50;;;;;;5069488;28;20455;-84